Falken — SBCH — position and weather

sailwx.info

Track history (hours):
 
Tides and Currents Weather Stations Pressure Air Temp Water Temp Dewpoint Dewpoint Depression Visibility Wind Speed Wind Dir Waves Ship Positions

Falken (Sweden)

Last reported at 2020-Sep-26 08:01 UTC. Time now 2020-Sep-26 08:24 UTC.
Position N 56°07' E 015°36'.

Length 40 m; draft 4.2 m.

Type: Sailing vessel. MMSI: 265070000.

Date/timePositionNaut miles runAvg speedWind from/ knotsBaromVisibWave heightAir tempDewpointWater temp
2020-Sep-26 08:01N 56°07' E 015°36'2 3.1
2020-Sep-26 07:31N 56°08' E 015°36'1 2.2
2020-Sep-26 07:00N 56°09' E 015°35'0 0.0
2020-Sep-26 06:29N 56°09' E 015°35'0 0.0
2020-Sep-26 05:29N 56°09' E 015°35'0 0.0
2020-Sep-26 00:29N 56°09' E 015°35'0 0.0
2020-Sep-25 23:29N 56°09' E 015°35'0 0.0
2020-Sep-25 20:29N 56°09' E 015°35'0 0.0
2020-Sep-25 19:29N 56°09' E 015°35'0 0.0
2020-Sep-25 14:29N 56°09' E 015°35'0 0.0
2020-Sep-25 13:59N 56°09' E 015°35'0 0.0
2020-Sep-25 13:29N 56°09' E 015°35'0 0.0
2020-Sep-25 08:29N 56°09' E 015°35'0 0.0
2020-Sep-25 07:29N 56°09' E 015°35'0 0.0
2020-Sep-25 06:59N 56°09' E 015°35'0 0.0
2020-Sep-25 05:59N 56°09' E 015°35'0 0.0
2020-Sep-25 03:59N 56°09' E 015°35'0 0.0
2020-Sep-25 00:29N 56°09' E 015°35'0 0.0
2020-Sep-24 16:59N 56°09' E 015°35'1 1.1
2020-Sep-24 16:01N 56°09' E 015°37'1 2.7
2020-Sep-24 15:30N 56°08' E 015°36'3 2.0
2020-Sep-24 14:00N 56°07' E 015°30'3 0.5
2020-Sep-24 07:30N 56°09' E 015°35'0 0.0
2020-Sep-24 06:28N 56°09' E 015°35'0 0.0
2020-Sep-24 05:28N 56°09' E 015°35'0 0.0
2020-Sep-24 02:58N 56°09' E 015°35'0 0.0
2020-Sep-24 02:28N 56°09' E 015°35'0 0.0
2020-Sep-24 01:58N 56°09' E 015°35'0 0.0
2020-Sep-23 21:28N 56°09' E 015°35'0 0.0
2020-Sep-23 19:58N 56°09' E 015°35'0 0.0
2020-Sep-23 19:25N 56°09' E 015°35'0 0.0
2020-Sep-23 19:22N 56°09' E 015°35'0 0.0
2020-Sep-23 18:58N 56°09' E 015°35'1 0.2
2020-Sep-23 15:00N 56°10' E 015°36'2 2.2
2020-Sep-23 14:01N 56°08' E 015°36'2 0.9
2020-Sep-23 12:00N 56°09' E 015°35'0 0.1
2020-Sep-23 11:00N 56°09' E 015°35'0 0.0
2020-Sep-23 10:30N 56°09' E 015°35'0 0.0
2020-Sep-23 02:00N 56°09' E 015°35'0 0.0
2020-Sep-22 23:00N 56°09' E 015°35'0 0.0
2020-Sep-22 16:30N 56°09' E 015°35'0 0.0
2020-Sep-22 16:00N 56°09' E 015°35'0 0.0
2020-Sep-22 15:30N 56°09' E 015°35'0 0.0
2020-Sep-22 12:00N 56°09' E 015°35'0 0.0
2020-Sep-22 11:00N 56°09' E 015°35'0 0.0
2020-Sep-22 10:00N 56°09' E 015°35'0 0.0
2020-Sep-22 09:30N 56°09' E 015°35'0 0.0
2020-Sep-22 08:00N 56°09' E 015°35'0 0.0
2020-Sep-22 07:30N 56°09' E 015°35'0 0.0
2020-Sep-22 07:00N 56°09' E 015°35'0 0.0
2020-Sep-22 05:00N 56°09' E 015°35'0 0.0
2020-Sep-22 04:00N 56°09' E 015°35'0 0.0
2020-Sep-22 03:30N 56°09' E 015°35'0 0.0
2020-Sep-21 23:00N 56°09' E 015°35'0 0.0
2020-Sep-21 22:00N 56°09' E 015°35'0 0.0
2020-Sep-21 21:30N 56°09' E 015°35'0 0.0
2020-Sep-21 20:30N 56°09' E 015°35'0 0.0
2020-Sep-21 17:30N 56°09' E 015°35'0 0.0
2020-Sep-21 16:00N 56°09' E 015°35'0 0.0
2020-Sep-21 14:00N 56°09' E 015°35'0 0.0
2020-Sep-21 10:30N 56°09' E 015°35'0 0.0
2020-Sep-21 08:30N 56°09' E 015°35'0 0.0
2020-Sep-21 07:30N 56°09' E 015°35'0 0.0
2020-Sep-21 05:30N 56°09' E 015°35'0 0.0
2020-Sep-21 01:30N 56°09' E 015°35'0 0.0
2020-Sep-21 00:30N 56°09' E 015°35'0 0.0
2020-Sep-20 23:30N 56°09' E 015°35'0 0.0
2020-Sep-20 19:30N 56°09' E 015°35'0 0.0
2020-Sep-20 19:00N 56°09' E 015°35'0 0.0
2020-Sep-20 18:00N 56°09' E 015°35'0 0.0
2020-Sep-20 17:30N 56°09' E 015°35'0 0.0
2020-Sep-20 17:00N 56°09' E 015°35'0 0.0
2020-Sep-20 16:30N 56°09' E 015°35'0 0.0
2020-Sep-20 16:00N 56°09' E 015°35'0 0.0
2020-Sep-20 14:30N 56°09' E 015°35'0 0.0
2020-Sep-20 12:30N 56°09' E 015°35'0 0.0
2020-Sep-20 12:00N 56°09' E 015°35'0 0.0
2020-Sep-20 11:30N 56°09' E 015°35'0 0.0
2020-Sep-20 10:30N 56°09' E 015°35'0 0.0
2020-Sep-20 08:30N 56°09' E 015°35'0 0.0
2020-Sep-20 07:00N 56°09' E 015°35'0 0.0
2020-Sep-20 06:00N 56°09' E 015°35'0 0.0
2020-Sep-20 00:00N 56°09' E 015°35'0 0.0
2020-Sep-19 20:30N 56°09' E 015°35'0 0.0
2020-Sep-19 19:00N 56°09' E 015°35'0 0.0
2020-Sep-19 17:30N 56°09' E 015°35'0 0.0
2020-Sep-19 16:30N 56°09' E 015°35'0 0.0
2020-Sep-19 14:00N 56°09' E 015°35'0 0.0
2020-Sep-19 11:00N 56°09' E 015°35'0 0.0
2020-Sep-19 10:00N 56°09' E 015°35'0 0.0
2020-Sep-19 07:30N 56°09' E 015°35'0 0.0
2020-Sep-19 07:00N 56°09' E 015°35'0 0.0
2020-Sep-19 05:00N 56°09' E 015°35'0 0.0
2020-Sep-19 04:30N 56°09' E 015°35'0 0.0
2020-Sep-19 02:30N 56°09' E 015°35'0 0.0
2020-Sep-19 01:30N 56°09' E 015°35'0 0.0
2020-Sep-18 23:30N 56°09' E 015°35'0 0.0
2020-Sep-18 22:30N 56°09' E 015°35'0 0.0
2020-Sep-18 20:00N 56°09' E 015°35'0 0.0
2020-Sep-18 19:00N 56°09' E 015°35'0 0.0
2020-Sep-18 18:00N 56°09' E 015°35'0 0.0
2020-Sep-18 15:00N 56°09' E 015°35'0 0.0
2020-Sep-18 13:30N 56°09' E 015°35'0 0.0
2020-Sep-18 10:30N 56°09' E 015°35'0 0.0
2020-Sep-18 07:30N 56°09' E 015°35'0 0.0
2020-Sep-18 07:00N 56°09' E 015°35'0 0.0
2020-Sep-18 05:00N 56°09' E 015°35'0 0.0
2020-Sep-18 03:00N 56°09' E 015°35'0 0.0
2020-Sep-18 01:30N 56°09' E 015°35'0 0.0
2020-Sep-18 01:00N 56°09' E 015°35'0 0.0
2020-Sep-17 19:30N 56°09' E 015°35'0 0.0
2020-Sep-17 17:00N 56°09' E 015°35'0 0.0
2020-Sep-17 15:30N 56°09' E 015°35'0 0.0
2020-Sep-17 14:30N 56°09' E 015°35'0 0.0
2020-Sep-17 12:00N 56°09' E 015°35'0 0.0
2020-Sep-17 08:00N 56°09' E 015°35'0 0.0
2020-Sep-17 07:30N 56°09' E 015°35'0 0.0
2020-Sep-17 07:00N 56°09' E 015°35'0 0.0
2020-Sep-17 06:30N 56°09' E 015°35'0 0.0
2020-Sep-17 03:30N 56°09' E 015°35'0 0.0
2020-Sep-17 03:00N 56°09' E 015°35'0 0.0
2020-Sep-17 01:27N 56°09' E 015°35'0 0.0
2020-Sep-17 01:00N 56°09' E 015°35'0 0.0
2020-Sep-17 00:30N 56°09' E 015°35'0 0.0
2020-Sep-17 00:00N 56°09' E 015°35'0 0.0
2020-Sep-16 20:30N 56°09' E 015°35'0 0.0
2020-Sep-16 18:30N 56°09' E 015°35'0 0.0
2020-Sep-16 18:00N 56°09' E 015°35'0 0.3
2020-Sep-16 17:00N 56°09' E 015°36'3 4.8
2020-Sep-16 16:28N 56°08' E 015°32'2 0.5
2020-Sep-16 12:00N 56°07' E 015°35'  
Track history (hours):
 
Tides and Currents Weather Stations Pressure Air Temp Water Temp Dewpoint Dewpoint Depression Visibility Wind Speed Wind Dir Waves Ship Positions

Falken (Sweden)

Last reported at 2020-Sep-26 08:01 UTC. Time now 2020-Sep-26 08:24 UTC.
Position N 56°07' E 015°36'.

Length 40 m; draft 4.2 m.

Type: Sailing vessel. MMSI: 265070000.

Date/timePositionNaut miles runAvg speedWind from/ knotsBaromVisibWave heightAir tempDewpointWater temp
2020-Sep-26 08:01N 56°07' E 015°36'2 3.1
2020-Sep-26 07:31N 56°08' E 015°36'1 2.2
2020-Sep-26 07:00N 56°09' E 015°35'0 0.0
2020-Sep-26 06:29N 56°09' E 015°35'0 0.0
2020-Sep-26 05:29N 56°09' E 015°35'0 0.0
2020-Sep-26 00:29N 56°09' E 015°35'0 0.0
2020-Sep-25 23:29N 56°09' E 015°35'0 0.0
2020-Sep-25 20:29N 56°09' E 015°35'0 0.0
2020-Sep-25 19:29N 56°09' E 015°35'0 0.0
2020-Sep-25 14:29N 56°09' E 015°35'0 0.0
2020-Sep-25 13:59N 56°09' E 015°35'0 0.0
2020-Sep-25 13:29N 56°09' E 015°35'0 0.0
2020-Sep-25 08:29N 56°09' E 015°35'0 0.0
2020-Sep-25 07:29N 56°09' E 015°35'0 0.0
2020-Sep-25 06:59N 56°09' E 015°35'0 0.0
2020-Sep-25 05:59N 56°09' E 015°35'0 0.0
2020-Sep-25 03:59N 56°09' E 015°35'0 0.0
2020-Sep-25 00:29N 56°09' E 015°35'0 0.0
2020-Sep-24 16:59N 56°09' E 015°35'1 1.1
2020-Sep-24 16:01N 56°09' E 015°37'1 2.7
2020-Sep-24 15:30N 56°08' E 015°36'3 2.0
2020-Sep-24 14:00N 56°07' E 015°30'3 0.5
2020-Sep-24 07:30N 56°09' E 015°35'0 0.0
2020-Sep-24 06:28N 56°09' E 015°35'0 0.0
2020-Sep-24 05:28N 56°09' E 015°35'0 0.0
2020-Sep-24 02:58N 56°09' E 015°35'0 0.0
2020-Sep-24 02:28N 56°09' E 015°35'0 0.0
2020-Sep-24 01:58N 56°09' E 015°35'0 0.0
2020-Sep-23 21:28N 56°09' E 015°35'0 0.0
2020-Sep-23 19:58N 56°09' E 015°35'0 0.0
2020-Sep-23 19:25N 56°09' E 015°35'0 0.0
2020-Sep-23 19:22N 56°09' E 015°35'0 0.0
2020-Sep-23 18:58N 56°09' E 015°35'1 0.2
2020-Sep-23 15:00N 56°10' E 015°36'2 2.2
2020-Sep-23 14:01N 56°08' E 015°36'2 0.9
2020-Sep-23 12:00N 56°09' E 015°35'0 0.1
2020-Sep-23 11:00N 56°09' E 015°35'0 0.0
2020-Sep-23 10:30N 56°09' E 015°35'0 0.0
2020-Sep-23 02:00N 56°09' E 015°35'0 0.0
2020-Sep-22 23:00N 56°09' E 015°35'0 0.0
2020-Sep-22 16:30N 56°09' E 015°35'0 0.0
2020-Sep-22 16:00N 56°09' E 015°35'0 0.0
2020-Sep-22 15:30N 56°09' E 015°35'0 0.0
2020-Sep-22 12:00N 56°09' E 015°35'0 0.0
2020-Sep-22 11:00N 56°09' E 015°35'0 0.0
2020-Sep-22 10:00N 56°09' E 015°35'0 0.0
2020-Sep-22 09:30N 56°09' E 015°35'0 0.0
2020-Sep-22 08:00N 56°09' E 015°35'0 0.0
2020-Sep-22 07:30N 56°09' E 015°35'0 0.0
2020-Sep-22 07:00N 56°09' E 015°35'0 0.0
2020-Sep-22 05:00N 56°09' E 015°35'0 0.0
2020-Sep-22 04:00N 56°09' E 015°35'0 0.0
2020-Sep-22 03:30N 56°09' E 015°35'0 0.0
2020-Sep-21 23:00N 56°09' E 015°35'0 0.0
2020-Sep-21 22:00N 56°09' E 015°35'0 0.0
2020-Sep-21 21:30N 56°09' E 015°35'0 0.0
2020-Sep-21 20:30N 56°09' E 015°35'0 0.0
2020-Sep-21 17:30N 56°09' E 015°35'0 0.0
2020-Sep-21 16:00N 56°09' E 015°35'0 0.0
2020-Sep-21 14:00N 56°09' E 015°35'0 0.0
2020-Sep-21 10:30N 56°09' E 015°35'0 0.0
2020-Sep-21 08:30N 56°09' E 015°35'0 0.0
2020-Sep-21 07:30N 56°09' E 015°35'0 0.0
2020-Sep-21 05:30N 56°09' E 015°35'0 0.0
2020-Sep-21 01:30N 56°09' E 015°35'0 0.0
2020-Sep-21 00:30N 56°09' E 015°35'0 0.0
2020-Sep-20 23:30N 56°09' E 015°35'0 0.0
2020-Sep-20 19:30N 56°09' E 015°35'0 0.0
2020-Sep-20 19:00N 56°09' E 015°35'0 0.0
2020-Sep-20 18:00N 56°09' E 015°35'0 0.0
2020-Sep-20 17:30N 56°09' E 015°35'0 0.0
2020-Sep-20 17:00N 56°09' E 015°35'0 0.0
2020-Sep-20 16:30N 56°09' E 015°35'0 0.0
2020-Sep-20 16:00N 56°09' E 015°35'0 0.0
2020-Sep-20 14:30N 56°09' E 015°35'0 0.0
2020-Sep-20 12:30N 56°09' E 015°35'0 0.0
2020-Sep-20 12:00N 56°09' E 015°35'0 0.0
2020-Sep-20 11:30N 56°09' E 015°35'0 0.0
2020-Sep-20 10:30N 56°09' E 015°35'0 0.0
2020-Sep-20 08:30N 56°09' E 015°35'0 0.0
2020-Sep-20 07:00N 56°09' E 015°35'0 0.0
2020-Sep-20 06:00N 56°09' E 015°35'0 0.0
2020-Sep-20 00:00N 56°09' E 015°35'0 0.0
2020-Sep-19 20:30N 56°09' E 015°35'0 0.0
2020-Sep-19 19:00N 56°09' E 015°35'0 0.0
2020-Sep-19 17:30N 56°09' E 015°35'0 0.0
2020-Sep-19 16:30N 56°09' E 015°35'0 0.0
2020-Sep-19 14:00N 56°09' E 015°35'0 0.0
2020-Sep-19 11:00N 56°09' E 015°35'0 0.0
2020-Sep-19 10:00N 56°09' E 015°35'0 0.0
2020-Sep-19 07:30N 56°09' E 015°35'0 0.0
2020-Sep-19 07:00N 56°09' E 015°35'0 0.0
2020-Sep-19 05:00N 56°09' E 015°35'0 0.0
2020-Sep-19 04:30N 56°09' E 015°35'0 0.0
2020-Sep-19 02:30N 56°09' E 015°35'0 0.0
2020-Sep-19 01:30N 56°09' E 015°35'0 0.0
2020-Sep-18 23:30N 56°09' E 015°35'0 0.0
2020-Sep-18 22:30N 56°09' E 015°35'0 0.0
2020-Sep-18 20:00N 56°09' E 015°35'0 0.0
2020-Sep-18 19:00N 56°09' E 015°35'0 0.0
2020-Sep-18 18:00N 56°09' E 015°35'0 0.0
2020-Sep-18 15:00N 56°09' E 015°35'0 0.0
2020-Sep-18 13:30N 56°09' E 015°35'0 0.0
2020-Sep-18 10:30N 56°09' E 015°35'0 0.0
2020-Sep-18 07:30N 56°09' E 015°35'0 0.0
2020-Sep-18 07:00N 56°09' E 015°35'0 0.0
2020-Sep-18 05:00N 56°09' E 015°35'0 0.0
2020-Sep-18 03:00N 56°09' E 015°35'0 0.0
2020-Sep-18 01:30N 56°09' E 015°35'0 0.0
2020-Sep-18 01:00N 56°09' E 015°35'0 0.0
2020-Sep-17 19:30N 56°09' E 015°35'0 0.0
2020-Sep-17 17:00N 56°09' E 015°35'0 0.0
2020-Sep-17 15:30N 56°09' E 015°35'0 0.0
2020-Sep-17 14:30N 56°09' E 015°35'0 0.0
2020-Sep-17 12:00N 56°09' E 015°35'0 0.0
2020-Sep-17 08:00N 56°09' E 015°35'0 0.0
2020-Sep-17 07:30N 56°09' E 015°35'0 0.0
2020-Sep-17 07:00N 56°09' E 015°35'0 0.0
2020-Sep-17 06:30N 56°09' E 015°35'0 0.0
2020-Sep-17 03:30N 56°09' E 015°35'0 0.0
2020-Sep-17 03:00N 56°09' E 015°35'0 0.0
2020-Sep-17 01:27N 56°09' E 015°35'0 0.0
2020-Sep-17 01:00N 56°09' E 015°35'0 0.0
2020-Sep-17 00:30N 56°09' E 015°35'0 0.0
2020-Sep-17 00:00N 56°09' E 015°35'0 0.0
2020-Sep-16 20:30N 56°09' E 015°35'0 0.0
2020-Sep-16 18:30N 56°09' E 015°35'0 0.0
2020-Sep-16 18:00N 56°09' E 015°35'0 0.3
2020-Sep-16 17:00N 56°09' E 015°36'3 4.8
2020-Sep-16 16:28N 56°08' E 015°32'2 0.5
2020-Sep-16 12:00N 56°07' E 015°35'  

Dump ship's entire track history